Mansfield Lahm Regional Airport
KMFD : now visible

Airfield :











YOU CAN JOIN US ON...

 
LOGIN :

Register | Disclaimer

   EN    FR    IT 

 









Legend :    VFR   Marginal VFR   IFR   Intensive IFR   Very Intensive IFR
Visi :
Ceiling :
>= 8 km
>= 3000ft
5 to 8 km
1000 to 3000 ft
1500m to 5 km
500 to 1000 ft
800 to 1500m
200 to 500 ft
< 800m
< 200 ft
Symbols :   Thunderstorms  Fog  Heavy snow  Heavy precipitations  Wind > 20 kt






- Airport Elevation : 1297 ft


KMFD - Mansfield Lahm Regional

CURRENT METAR :
  • 280452Z AUTO 23009KT 10SM CLR 16/12 A2983 RMK AO2 SLP094 T01560117 402390150 $

EXPIRED METARs :
  • 280352Z AUTO 23009KT 10SM CLR 16/12 A2983 RMK AO2 SLP096 T01560117 $
  • 280252Z AUTO 23010G16KT 10SM BKN034 16/12 A2983 RMK AO2 SLP097 T01610117 53016 $
  • 280152Z AUTO 24008KT 10SM FEW049 16/12 A2981 RMK AO2 SLP090 T01610117 $
  • 280052Z AUTO 24008G19KT 10SM FEW029 FEW036 OVC046 17/12 A2980 RMK AO2 SLP087 T01720117 $
  • 280039Z AUTO 25009G17KT 10SM FEW023 SCT032 OVC046 17/12 A2980 RMK AO2 T01720122 $
  • 280011Z AUTO 25008G16KT 10SM SCT024 BKN029 OVC046 17/12 A2979 RMK AO2 T01720122 $

TAF KMFD
Valid from the 28 at 00:00 until the 29 at 00:00 UTC


272346Z 2800/2824 25012G20KT P6SM SCT025 OVC040
FM280100 24010KT P6SM SCT030
FM281400 28009KT P6SM VCSH BKN025
FM281700 28010KT P6SM VCSH BKN040
FM281900 29010KT P6SM -SHRA VCTS BKN040CB
FM282300 30007KT P6SM VCSH BKN040
KZOB FIR / North America



MET'MAP, your aeronautical weather chart ! - Copyright ORBIFLY December 2007 - Disclaimer

ORBIFLY MET'MAP TEAM :

Programming & Development : Alexandra Zaïnal
Original concept : Baudouin d'Aumeries
Technical & hardware support : Manuel Goepfert
Assistance : Marc-Olivier Méhu




SOURCES & CREDITS :

   NOAA       Earth
Advisory